Kezdőlap
METAR-TAF:

METAR-TAF

Repülőterek :

Philip Billard Municipal Airport

Topeka, Kansas, Amerikai Egyesült Államok

földrajzi szélesség: 39-04-21N, földrajzi hosszúság: 095-37-33W, magasság: 268 m

Jelenlegi meteorológiai megfigyelések

A jelentés 1 órával és 2 perccel ezelõtt készült, 16:53 UTC
Északkeleti szél 9 kt
Hőmérséklet 16°C
Páratartalom 59%
Légköri nyomás 1024 hPa
Látótávolság: 16.1 km
Derült ég

METAR: KTOP 111653Z 04009KT 10SM CLR 16/08 A3025 RMK AO2 SLP240 T01610078

Idő: 12:55 (17:55 UTC)

Előrejelzés

A jelentés 27 perccel ezelõtt készült, 17:28 UTC
Az előrejelzés 11-én 18 óra UTC és 12-én 18 óra UTC között érvényes
Kelet-északkeleti szél 9 kt
Látótávolság: 10 km
Kevés felhő 4000 lábon
Szakadozott felhőzet 6000 lábon

TAF: KTOP 111728Z 1118/1218 07009KT P6SM FEW040 BKN060

Meteorológiai megfigyelések és előrejelzések több, mint 4000 repülőtéren (METAR és TAF jelentéseket).

A térképen piros és sárga pontok jelzik az elérhető meteorológiai állomásokat.

Mozgassa az egeret a pont fölött, hogy megjelenjen az állomás neve.

Azután kattintson az időjárási megfigyelések és előrejelzések megtekintéséhez.

A térkép megváltoztatása: kattintson a fekete keresztel jelölt zöld gombra ráközelítéshez, a vonallal jelölt zöld gombra távolításhoz, vagy a zöld nyilakra a szomszédos térképek eléréséhez.


METAR-TAF: